Time;durP1;ratioP1;P1;durP2;ratioP2;P2;SDS_P1;SDS_P2;PMS_P1;PMS_P2;Temp;Humidity;BMP_temperature;BMP_pressure;BME280_temperature;BME280_humidity;BME280_pressure;Samples;Min_cycle;Max_cycle;Signal;HPM_P1;HPM_P2
2023/11/25 00:03:55;;;;;;;0.60;0.60;;;;;;;4.54;100.00;101437.94;10376820;28;20108;-73
2023/11/25 00:08:56;;;;;;;0.50;0.50;;;;;;;4.60;100.00;101442.72;10376516;28;20038;-74
2023/11/25 00:13:56;;;;;;;0.60;0.60;;;;;;;4.56;100.00;101438.63;10376497;28;20056;-75
2023/11/25 00:18:57;;;;;;;0.60;0.60;;;;;;;4.48;100.00;101427.78;10375471;28;20121;-74
2023/11/25 00:23:57;;;;;;;2.15;1.98;;;;;;;4.37;100.00;101432.34;10375479;28;20045;-74
2023/11/25 00:28:57;;;;;;;1.30;1.30;;;;;;;4.22;100.00;101422.22;10374660;28;20049;-74
2023/11/25 00:33:58;;;;;;;0.88;0.88;;;;;;;4.04;100.00;101430.13;10375627;28;20065;-74
2023/11/25 00:38:59;;;;;;;2.05;2.05;;;;;;;3.95;100.00;101418.41;10374446;28;20412;-74
2023/11/25 00:43:59;;;;;;;0.50;0.50;;;;;;;3.94;100.00;101414.88;10374546;28;20040;-74
2023/11/25 00:49:00;;;;;;;0.70;0.70;;;;;;;4.01;100.00;101403.59;10374076;28;20057;-74
2023/11/25 00:54:00;;;;;;;0.88;0.88;;;;;;;4.17;100.00;101417.25;10373875;28;20038;-74
2023/11/25 00:59:01;;;;;;;0.40;0.40;;;;;;;4.61;100.00;101422.97;10374663;28;20410;-74
2023/11/25 01:04:01;;;;;;;2.65;2.55;;;;;;;4.83;100.00;101419.91;10372852;28;20121;-74
2023/11/25 01:09:02;;;;;;;1.85;1.80;;;;;;;5.01;100.00;101411.94;10371351;28;20037;-73
2023/11/25 01:14:02;;;;;;;0.50;0.50;;;;;;;5.15;100.00;101418.63;10374489;28;20433;-73
2023/11/25 01:19:02;;;;;;;5.60;5.15;;;;;;;5.12;100.00;101433.19;10372953;28;20037;-73
2023/11/25 01:24:04;;;;;;;1.15;1.15;;;;;;;5.05;100.00;101417.84;10373554;28;20172;-73
2023/11/25 01:29:05;;;;;;;0.50;0.50;;;;;;;5.09;100.00;101428.13;10374546;28;20065;-73
2023/11/25 01:34:06;;;;;;;6.50;6.07;;;;;;;5.06;100.00;101425.75;10356558;28;20065;-73
2023/11/25 01:39:06;;;;;;;0.60;0.60;;;;;;;5.05;100.00;101431.28;10372664;28;20037;-73
2023/11/25 01:44:07;;;;;;;0.57;0.57;;;;;;;5.20;100.00;101439.66;10370876;28;20061;-73
2023/11/25 01:49:08;;;;;;;0.50;0.50;;;;;;;5.32;100.00;101431.25;10371626;28;20049;-74
2023/11/25 01:54:09;;;;;;;0.60;0.60;;;;;;;5.28;100.00;101437.09;10372383;28;20072;-73
2023/11/25 01:59:11;;;;;;;0.60;0.60;;;;;;;5.15;100.00;101432.06;10354886;28;20121;-73
2023/11/25 02:04:11;;;;;;;0.60;0.60;;;;;;;5.25;100.00;101446.28;10372305;28;20050;-73
2023/11/25 02:09:13;;;;;;;0.60;0.60;;;;;;;5.28;100.00;101443.28;10371862;28;20034;-73
2023/11/25 02:14:13;;;;;;;0.50;0.50;;;;;;;5.35;100.00;101439.00;10372323;28;20037;-72
2023/11/25 02:19:14;;;;;;;0.43;0.43;;;;;;;5.22;100.00;101432.31;10371077;28;20041;-73
2023/11/25 02:24:15;;;;;;;0.60;0.60;;;;;;;5.18;100.00;101429.09;10371097;28;20026;-73
2023/11/25 02:29:15;;;;;;;0.50;0.50;;;;;;;5.19;100.00;101430.75;10369972;28;20038;-72
2023/11/25 02:34:15;;;;;;;0.60;0.60;;;;;;;5.01;100.00;101413.75;10372088;28;20034;-73
2023/11/25 02:39:18;;;;;;;0.50;0.50;;;;;;;4.97;100.00;101417.72;10372035;28;20452;-73
2023/11/25 02:44:19;;;;;;;0.40;0.40;;;;;;;4.89;100.00;101413.97;10369771;28;20121;-73
2023/11/25 02:49:20;;;;;;;0.50;0.50;;;;;;;4.93;100.00;101413.66;10370158;28;20113;-73
2023/11/25 02:54:22;;;;;;;0.50;0.50;;;;;;;4.98;100.00;101401.50;10370755;28;20053;-73
2023/11/25 02:59:22;;;;;;;0.60;0.60;;;;;;;5.02;100.00;101400.19;10354100;28;20026;-73
2023/11/25 03:04:31;;;;;;;31.10;6.22;;;;;;;5.24;100.00;101412.38;10371604;28;20485;-73
2023/11/25 03:09:33;;;;;;;14.52;3.42;;;;;;;5.44;100.00;101396.13;10371635;28;20125;-73
2023/11/25 03:14:33;;;;;;;22.75;4.85;;;;;;;5.43;100.00;101389.09;10370468;28;20076;-72
2023/11/25 03:19:34;;;;;;;20.60;5.05;;;;;;;5.39;100.00;101385.00;10370798;28;20042;-72
2023/11/25 03:24:34;;;;;;;11.95;4.78;;;;;;;5.50;100.00;101377.56;10370735;28;20378;-72
2023/11/25 03:29:35;;;;;;;8.57;3.95;;;;;;;5.69;100.00;101384.63;10377816;28;20045;-72
2023/11/25 03:34:35;;;;;;;21.15;3.83;;;;;;;5.90;100.00;101395.06;10378090;28;20065;-72
2023/11/25 03:39:36;;;;;;;17.58;3.95;;;;;;;5.92;100.00;101390.38;10377169;28;20038;-72
2023/11/25 03:44:36;;;;;;;13.68;5.10;;;;;;;5.94;100.00;101401.88;10376678;28;20125;-72
2023/11/25 03:49:37;;;;;;;13.75;2.97;;;;;;;6.04;100.00;101399.09;10376938;28;20061;-72
2023/11/25 03:54:38;;;;;;;4.55;2.65;;;;;;;6.00;100.00;101395.03;10376830;28;20038;-72
2023/11/25 03:59:38;;;;;;;12.68;3.50;;;;;;;6.10;100.00;101398.47;10375034;28;20026;-72
2023/11/25 04:04:38;;;;;;;14.98;3.28;;;;;;;6.08;100.00;101402.31;10375600;28;20037;-72
2023/11/25 04:09:39;;;;;;;9.32;2.20;;;;;;;5.89;100.00;101414.03;10374518;28;20042;-72
2023/11/25 04:14:40;;;;;;;1.25;0.95;;;;;;;5.77;100.00;101408.88;10375322;28;20037;-72
2023/11/25 04:19:40;;;;;;;1.30;1.17;;;;;;;5.69;100.00;101411.50;10376305;28;20447;-72
2023/11/25 04:24:41;;;;;;;7.63;2.53;;;;;;;5.80;100.00;101422.00;10375308;28;20034;-72
2023/11/25 04:29:42;;;;;;;4.35;1.95;;;;;;;6.01;100.00;101429.81;10375510;28;20155;-73
2023/11/25 04:34:43;;;;;;;0.50;0.50;;;;;;;5.80;100.00;101405.03;10375291;28;20041;-74
2023/11/25 04:39:44;;;;;;;0.40;0.40;;;;;;;5.43;100.00;101386.41;10373889;28;20057;-73
2023/11/25 04:44:45;;;;;;;0.60;0.60;;;;;;;5.38;100.00;101423.59;10375549;28;20041;-74
2023/11/25 04:49:45;;;;;;;0.55;0.55;;;;;;;5.15;100.00;101390.94;10374736;28;20361;-74
2023/11/25 04:54:46;;;;;;;0.50;0.50;;;;;;;5.05;100.00;101391.84;10374843;28;20428;-74
2023/11/25 04:59:47;;;;;;;0.60;0.60;;;;;;;4.88;100.00;101392.63;10372295;28;20338;-74
2023/11/25 05:04:47;;;;;;;0.60;0.60;;;;;;;4.66;100.00;101393.88;10372361;28;20065;-74
2023/11/25 05:09:48;;;;;;;0.50;0.50;;;;;;;4.56;100.00;101379.63;10373749;28;20038;-74
2023/11/25 05:14:48;;;;;;;0.60;0.60;;;;;;;4.67;100.00;101371.41;10356545;28;20399;-74
2023/11/25 05:19:49;;;;;;;0.50;0.50;;;;;;;4.99;100.00;101384.38;10372825;28;20037;-73
2023/11/25 05:24:49;;;;;;;0.50;0.50;;;;;;;5.20;100.00;101385.97;10372599;28;20033;-74
2023/11/25 05:29:50;;;;;;;0.70;0.70;;;;;;;5.17;100.00;101370.16;10371894;28;20362;-74
2023/11/25 05:34:50;;;;;;;0.50;0.50;;;;;;;5.36;100.00;101376.25;10370731;28;20049;-73
2023/11/25 05:39:50;;;;;;;0.50;0.50;;;;;;;5.49;100.00;101375.88;10372534;28;20044;-73
2023/11/25 05:44:51;;;;;;;0.63;0.63;;;;;;;5.41;100.00;101367.75;10372707;28;20030;-73
2023/11/25 05:49:52;;;;;;;0.55;0.55;;;;;;;5.42;100.00;101382.84;10370876;28;20117;-73
2023/11/25 05:54:52;;;;;;;0.50;0.50;;;;;;;5.46;100.00;101367.28;10372055;28;20088;-73
2023/11/25 05:59:53;;;;;;;0.55;0.55;;;;;;;5.34;100.00;101358.59;10371439;28;20065;-73
2023/11/25 06:04:53;;;;;;;0.40;0.40;;;;;;;5.22;100.00;101344.53;10372676;28;20065;-73
2023/11/25 06:09:53;;;;;;;0.57;0.57;;;;;;;5.03;100.00;101331.25;10372195;28;20057;-73
2023/11/25 06:14:55;;;;;;;0.40;0.40;;;;;;;5.14;100.00;101323.00;10369130;28;20076;-73
2023/11/25 06:19:56;;;;;;;0.47;0.47;;;;;;;5.27;100.00;101346.78;10370124;28;20413;-74
2023/11/25 06:24:58;;;;;;;0.50;0.50;;;;;;;5.33;100.00;101336.28;10371971;28;20069;-73
2023/11/25 06:29:58;;;;;;;0.55;0.55;;;;;;;5.53;100.00;101342.34;10372094;28;20132;-73
2023/11/25 06:34:58;;;;;;;0.60;0.60;;;;;;;5.63;100.00;101353.00;10373068;28;20048;-74
2023/11/25 06:39:59;;;;;;;0.80;0.80;;;;;;;5.58;100.00;101345.44;10371142;28;20488;-74
2023/11/25 06:45:01;;;;;;;12.27;1.98;;;;;;;5.32;100.00;101342.63;10370792;28;20033;-73
2023/11/25 06:50:01;;;;;;;0.50;0.50;;;;;;;5.24;100.00;101333.66;10372042;28;20038;-74
2023/11/25 06:55:02;;;;;;;0.40;0.40;;;;;;;5.22;100.00;101341.03;10372248;28;20030;-73
2023/11/25 07:00:03;;;;;;;0.50;0.50;;;;;;;5.36;100.00;101327.91;10372514;28;20517;-74
2023/11/25 07:05:04;;;;;;;0.40;0.40;;;;;;;5.58;100.00;101325.75;10378279;28;20036;-73
2023/11/25 07:10:09;;;;;;;0.40;0.40;;;;;;;5.65;100.00;101328.66;10393232;28;20125;-73
2023/11/25 07:15:10;;;;;;;2.90;2.70;;;;;;;5.83;100.00;101346.44;10378883;28;20315;-73
2023/11/25 07:20:13;;;;;;;0.50;0.50;;;;;;;5.77;100.00;101339.00;10376454;28;20037;-73
2023/11/25 07:25:14;;;;;;;0.60;0.60;;;;;;;5.68;100.00;101358.78;10378021;28;20030;-74
2023/11/25 07:30:15;;;;;;;0.50;0.50;;;;;;;5.50;100.00;101333.75;10377382;28;20033;-75
2023/11/25 07:35:16;;;;;;;5.40;5.00;;;;;;;5.43;100.00;101338.06;10377074;28;20046;-74
2023/11/25 07:40:16;;;;;;;0.50;0.50;;;;;;;5.40;100.00;101344.56;10375916;28;20046;-73
2023/11/25 07:45:17;;;;;;;2.35;2.25;;;;;;;5.46;100.00;101349.34;10375691;28;20030;-73
2023/11/25 07:50:17;;;;;;;0.70;0.70;;;;;;;5.49;100.00;101338.28;10375986;28;20068;-73
2023/11/25 07:55:18;;;;;;;0.60;0.60;;;;;;;5.63;100.00;101338.72;10374485;28;20088;-73
2023/11/25 08:00:19;;;;;;;0.60;0.60;;;;;;;5.88;100.00;101348.69;10375676;28;20062;-73
2023/11/25 08:05:22;;;;;;;0.70;0.70;;;;;;;6.28;100.00;101337.38;10374459;28;20084;-72
2023/11/25 08:10:24;;;;;;;0.50;0.50;;;;;;;6.32;100.00;101337.06;10376482;28;20038;-73
2023/11/25 08:15:25;;;;;;;0.50;0.50;;;;;;;6.04;100.00;101334.56;10359026;28;20046;-73
2023/11/25 08:20:25;;;;;;;0.60;0.60;;;;;;;6.03;100.00;101347.16;10357165;28;20030;-73
2023/11/25 08:25:25;;;;;;;0.65;0.65;;;;;;;5.93;100.00;101345.56;10375190;28;20514;-73
2023/11/25 08:30:26;;;;;;;0.50;0.50;;;;;;;6.25;100.00;101351.19;10375752;28;20060;-73
2023/11/25 08:35:26;;;;;;;2.35;1.27;;;;;;;7.04;100.00;101364.50;10375210;28;20037;-74
2023/11/25 08:40:27;;;;;;;0.50;0.50;;;;;;;6.48;100.00;101407.97;10375071;28;20172;-74
2023/11/25 08:45:28;;;;;;;0.55;0.55;;;;;;;5.92;100.00;101363.50;10374458;28;20092;-75
2023/11/25 08:50:29;;;;;;;0.50;0.50;;;;;;;5.72;100.00;101352.09;10374079;28;20042;-74
2023/11/25 08:55:29;;;;;;;0.50;0.50;;;;;;;5.75;100.00;101351.78;10373446;28;20037;-74
2023/11/25 09:00:30;;;;;;;0.50;0.50;;;;;;;5.98;100.00;101354.84;10373204;28;20076;-74
2023/11/25 09:05:31;;;;;;;0.50;0.50;;;;;;;6.15;100.00;101352.28;10373784;28;20038;-73
2023/11/25 09:10:33;;;;;;;0.47;0.47;;;;;;;6.57;100.00;101373.88;10373409;28;20076;-73
2023/11/25 09:15:34;;;;;;;0.45;0.45;;;;;;;6.33;100.00;101377.28;10373349;28;20419;-74
2023/11/25 09:20:34;;;;;;;1.83;1.83;;;;;;;6.01;100.00;101373.34;10373280;28;20087;-73
2023/11/25 09:25:34;;;;;;;1.00;1.00;;;;;;;6.06;100.00;101375.56;10372292;28;20109;-73
2023/11/25 09:30:35;;;;;;;0.50;0.50;;;;;;;7.57;100.00;101366.00;10373689;28;20065;-73
2023/11/25 09:35:36;;;;;;;0.60;0.60;;;;;;;8.56;100.00;101355.00;10373541;28;20033;-73
2023/11/25 09:40:36;;;;;;;4.15;3.08;;;;;;;9.09;100.00;101363.38;10387970;28;20553;-74
2023/11/25 09:45:37;;;;;;;1.15;0.77;;;;;;;9.48;100.00;101357.94;10371323;28;20113;-73
2023/11/25 09:50:37;;;;;;;0.55;0.55;;;;;;;10.13;100.00;101366.56;10370878;28;20413;-73
2023/11/25 09:55:38;;;;;;;1.15;1.15;;;;;;;10.17;100.00;101381.38;10371799;28;20033;-73
2023/11/25 10:00:38;;;;;;;1.95;1.85;;;;;;;8.68;100.00;101377.06;10371064;28;20053;-73
2023/11/25 10:05:39;;;;;;;0.50;0.50;;;;;;;7.73;100.00;101379.50;10372661;28;20133;-73
2023/11/25 10:10:39;;;;;;;0.50;0.50;;;;;;;7.34;100.00;101387.31;10371556;28;20359;-73
2023/11/25 10:15:47;;;;;;;0.40;0.40;;;;;;;7.36;100.00;101377.22;10370229;28;20048;-73
2023/11/25 10:20:49;;;;;;;11.77;2.67;;;;;;;7.56;100.00;101373.25;10371177;28;20361;-73
2023/11/25 10:25:52;;;;;;;20.70;4.93;;;;;;;7.38;100.00;101365.28;10354876;28;20034;-73
2023/11/25 10:30:54;;;;;;;8.88;3.65;;;;;;;8.16;100.00;101351.31;10356184;28;20145;-74
2023/11/25 10:35:55;;;;;;;10.68;2.70;;;;;;;9.04;100.00;101369.31;10360735;28;20030;-73
2023/11/25 10:41:03;;;;;;;14.98;4.47;;;;;;;9.89;100.00;101354.94;10379185;28;20038;-73
2023/11/25 10:46:07;;;;;;;13.13;4.20;;;;;;;10.27;100.00;101346.81;10380079;28;20042;-74
2023/11/25 10:51:08;;;;;;;19.55;4.68;;;;;;;9.97;100.00;101354.84;10378761;28;20192;-73
2023/11/25 10:56:08;;;;;;;13.02;3.97;;;;;;;9.93;100.00;101353.53;10379665;28;20042;-74
2023/11/25 11:01:09;;;;;;;13.15;4.28;;;;;;;10.19;100.00;101352.28;10379659;28;20100;-73
2023/11/25 11:06:10;;;;;;;26.05;5.03;;;;;;;10.59;100.00;101342.94;10361651;28;20057;-74
2023/11/25 11:11:45;;;;;;;22.33;5.03;;;;;;;11.09;100.00;101333.16;10378972;28;20038;-73
2023/11/25 11:16:53;;;;;;;17.15;4.25;;;;;;;11.57;100.00;101329.91;10352043;28;20041;-73
2023/11/25 11:21:55;;;;;;;19.90;4.68;;;;;;;11.30;100.00;101347.78;10378525;28;20038;-73
2023/11/25 11:27:15;;;;;;;11.38;2.80;;;;;;;10.76;100.00;101348.16;10377855;28;20034;-73
2023/11/25 11:32:19;;;;;;;12.52;3.95;;;;;;;10.76;100.00;101334.63;10377450;28;20483;-72
2023/11/25 11:37:20;;;;;;;5.78;3.35;;;;;;;9.84;100.00;101341.09;10378464;28;20071;-73
2023/11/25 11:42:26;;;;;;;6.32;2.20;;;;;;;10.32;100.00;101322.75;10378288;28;20421;-73
2023/11/25 11:47:27;;;;;;;;;;;;;;;10.76;100.00;101321.06;10378261;28;20056;-72
2023/11/25 11:52:27;;;;;;;9.32;4.22;;;;;;;11.25;100.00;101323.94;10377274;28;20020;-72
2023/11/25 11:57:27;;;;;;;17.13;4.72;;;;;;;11.46;100.00;101325.03;10360120;28;20033;-73
2023/11/25 12:02:31;;;;;;;16.17;5.80;;;;;;;11.75;100.00;101318.63;10377700;28;20050;-72
2023/11/25 12:07:32;;;;;;;15.10;4.18;;;;;;;12.06;100.00;101320.97;10375932;28;20037;-72
2023/11/25 12:12:39;;;;;;;12.15;3.95;;;;;;;12.77;100.00;101318.94;10376462;28;20096;-72
2023/11/25 12:17:41;;;;;;;13.90;4.95;;;;;;;12.55;100.00;101325.50;10375307;28;20036;-72
2023/11/25 12:22:42;;;;;;;15.48;3.45;;;;;;;12.08;100.00;101318.91;10376036;28;20038;-75
2023/11/25 12:28:04;;;;;;;18.15;3.42;;;;;;;10.73;100.00;101330.41;10374706;28;20040;-73
2023/11/25 12:33:05;;;;;;;16.83;5.78;;;;;;;10.25;100.00;101324.50;10374349;28;20046;-72
2023/11/25 12:38:06;;;;;;;12.75;4.45;;;;;;;9.57;100.00;101330.81;10374448;28;20112;-72
2023/11/25 12:43:08;;;;;;;14.68;4.93;;;;;;;9.58;100.00;101343.34;10374247;28;20129;-72
2023/11/25 12:48:11;;;;;;;15.32;4.18;;;;;;;10.33;100.00;101331.69;10375872;28;20064;-72
2023/11/25 12:53:14;;;;;;;9.15;4.50;;;;;;;9.96;100.00;101358.59;10374126;28;20030;-73
2023/11/25 12:58:17;;;;;;;11.88;3.92;;;;;;;9.58;100.00;101351.44;10374724;28;20041;-73
2023/11/25 13:03:21;;;;;;;6.78;3.22;;;;;;;9.44;100.00;101345.78;10357923;28;20058;-72
2023/11/25 13:08:28;;;;;;;10.23;5.55;;;;;;;9.82;100.00;101343.13;10373354;28;20080;-72
2023/11/25 13:13:29;;;;;;;15.80;3.75;;;;;;;9.98;100.00;101344.84;10373202;28;20044;-74
2023/11/25 13:18:31;;;;;;;10.77;3.83;;;;;;;10.34;100.00;101355.91;10372389;28;20030;-72
2023/11/25 13:23:38;;;;;;;11.48;4.72;;;;;;;9.84;100.00;101365.44;10524256;28;20378;-73
2023/11/25 13:28:38;;;;;;;39.35;6.90;;;;;;;9.65;100.00;101358.66;10515120;28;20128;-74
2023/11/25 13:33:39;;;;;;;13.65;4.78;;;;;;;9.76;100.00;101357.38;10487653;28;20037;-74
2023/11/25 13:38:39;;;;;;;11.77;3.53;;;;;;;9.68;100.00;101376.38;10484452;28;20056;-73
2023/11/25 13:43:40;;;;;;;12.25;3.10;;;;;;;9.01;100.00;101369.66;10485452;28;20037;-73
2023/11/25 13:48:40;;;;;;;13.38;3.90;;;;;;;8.55;100.00;101372.22;10485309;28;20122;-74
2023/11/25 13:53:40;;;;;;;29.40;4.97;;;;;;;8.39;100.00;101364.13;10483472;28;20446;-74
2023/11/25 13:58:41;;;;;;;17.52;3.08;;;;;;;8.10;100.00;101359.25;10484265;28;20090;-73
2023/11/25 14:03:41;;;;;;;14.50;3.95;;;;;;;7.88;100.00;101361.63;10480364;28;20037;-73
2023/11/25 14:08:41;;;;;;;14.43;5.00;;;;;;;7.84;100.00;101371.06;10483910;28;20044;-74
2023/11/25 14:13:42;;;;;;;1.98;1.80;;;;;;;7.74;100.00;101366.84;10482547;28;20087;-73
2023/11/25 14:18:42;;;;;;;8.25;2.58;;;;;;;7.52;100.00;101353.00;10482092;28;20041;-74
2023/11/25 14:23:43;;;;;;;2.97;1.08;;;;;;;7.44;100.00;101353.00;10483307;28;20047;-73
2023/11/25 14:28:44;;;;;;;2.17;1.38;;;;;;;7.45;100.00;101338.50;10482518;28;20380;-73
2023/11/25 14:33:44;;;;;;;3.33;2.25;;;;;;;7.36;100.00;101334.13;10461381;28;20461;-73
2023/11/25 14:38:46;;;;;;;8.40;3.88;;;;;;;7.51;100.00;101342.41;10496580;28;20048;-73
2023/11/25 14:43:46;;;;;;;5.32;2.08;;;;;;;7.49;100.00;101352.50;10495897;28;20047;-73
2023/11/25 14:48:47;;;;;;;8.45;2.65;;;;;;;7.34;100.00;101361.25;10463376;28;20041;-73
2023/11/25 14:53:49;;;;;;;3.45;1.60;;;;;;;7.12;100.00;101375.31;10452900;28;20048;-75
2023/11/25 14:58:49;;;;;;;8.95;2.92;;;;;;;7.00;100.00;101385.53;10452622;28;20398;-75
2023/11/25 15:03:50;;;;;;;10.82;3.30;;;;;;;6.90;100.00;101379.44;10453136;28;20037;-76
2023/11/25 15:08:50;;;;;;;11.77;2.90;;;;;;;6.90;100.00;101368.69;10453859;28;20033;-74
2023/11/25 15:13:51;;;;;;;20.88;4.13;;;;;;;7.06;100.00;101384.06;10453316;28;20068;-74
2023/11/25 15:18:51;;;;;;;21.23;4.90;;;;;;;7.29;100.00;101377.03;10452724;28;20063;-75
2023/11/25 15:23:51;;;;;;;19.33;5.15;;;;;;;7.53;100.00;101364.63;10453299;28;20107;-73
2023/11/25 15:28:54;;;;;;;14.43;5.00;;;;;;;7.54;100.00;101369.88;10453500;28;20044;-76
2023/11/25 15:33:55;;;;;;;9.52;4.05;;;;;;;7.38;100.00;101370.66;10452737;28;20072;-73
2023/11/25 15:38:55;;;;;;;26.05;5.43;;;;;;;7.22;100.00;101371.47;10450780;28;20473;-73
2023/11/25 15:43:55;;;;;;;22.70;4.57;;;;;;;7.27;100.00;101373.66;10451977;28;20053;-73
2023/11/25 15:48:57;;;;;;;21.70;4.50;;;;;;;7.33;100.00;101380.25;10463019;28;20044;-73
2023/11/25 15:53:57;;;;;;;14.07;3.35;;;;;;;7.45;100.00;101381.63;10492785;28;20132;-73
2023/11/25 15:58:59;;;;;;;12.75;3.45;;;;;;;7.56;100.00;101400.19;10493321;28;20041;-73
2023/11/25 16:03:59;;;;;;;10.02;3.17;;;;;;;7.52;100.00;101392.59;10493527;28;20166;-73
2023/11/25 16:09:00;;;;;;;5.03;2.97;;;;;;;7.39;100.00;101391.22;10493152;28;20033;-73
2023/11/25 16:14:00;;;;;;;17.25;3.97;;;;;;;7.21;100.00;101385.97;10492413;28;20120;-73
2023/11/25 16:19:01;;;;;;;10.55;3.13;;;;;;;7.34;100.00;101425.91;10492904;28;20040;-72
2023/11/25 16:24:01;;;;;;;8.68;2.60;;;;;;;7.20;100.00;101430.03;10493029;28;20436;-72
2023/11/25 16:29:03;;;;;;;0.40;0.40;;;;;;;6.82;100.00;101415.22;10492843;28;20120;-74
2023/11/25 16:34:03;;;;;;;0.40;0.40;;;;;;;6.66;100.00;101420.53;10492542;28;20086;-74
2023/11/25 16:39:05;;;;;;;0.35;0.35;;;;;;;6.56;100.00;101417.09;10492246;28;20047;-74
2023/11/25 16:44:05;;;;;;;6.38;2.67;;;;;;;6.67;100.00;101439.22;10492216;28;20115;-74
2023/11/25 16:49:06;;;;;;;0.40;0.40;;;;;;;6.77;100.00;101443.66;10490243;28;20059;-73
2023/11/25 16:54:06;;;;;;;4.50;4.20;;;;;;;6.68;100.00;101443.59;10492015;28;20028;-73
2023/11/25 16:59:09;;;;;;;0.40;0.40;;;;;;;6.49;100.00;101450.03;10490190;28;20029;-74
2023/11/25 17:04:09;;;;;;;0.30;0.30;;;;;;;6.32;100.00;101445.53;10490477;28;20530;-73
2023/11/25 17:09:11;;;;;;;0.50;0.50;;;;;;;6.19;100.00;101448.63;10491495;28;20037;-74
2023/11/25 17:14:11;;;;;;;0.57;0.57;;;;;;;6.13;100.00;101438.50;10492330;28;20091;-73
2023/11/25 17:19:12;;;;;;;0.50;0.50;;;;;;;6.12;100.00;101439.47;10490970;28;20079;-74
2023/11/25 17:24:12;;;;;;;0.50;0.50;;;;;;;6.41;100.00;101446.41;10490065;28;20174;-74
2023/11/25 17:29:13;;;;;;;0.52;0.52;;;;;;;6.33;100.00;101449.91;10491602;28;20086;-74
2023/11/25 17:34:14;;;;;;;0.45;0.45;;;;;;;6.41;100.00;101451.78;10489973;28;20074;-74
2023/11/25 17:39:14;;;;;;;4.43;4.13;;;;;;;6.55;100.00;101459.31;10473212;28;20029;-74
2023/11/25 17:44:15;;;;;;;0.50;0.50;;;;;;;6.81;100.00;101462.00;10491528;28;20399;-74
2023/11/25 17:49:16;;;;;;;1.05;1.05;;;;;;;6.90;100.00;101457.53;10490743;28;20056;-73
2023/11/25 17:54:16;;;;;;;0.38;0.38;;;;;;;6.90;100.00;101454.81;10490109;28;20039;-73
2023/11/25 17:59:17;;;;;;;0.60;0.60;;;;;;;6.96;100.00;101470.34;10490882;28;20074;-74
2023/11/25 18:04:17;;;;;;;0.45;0.45;;;;;;;6.99;100.00;101499.66;10490693;28;20060;-73
2023/11/25 18:09:19;;;;;;;0.40;0.40;;;;;;;6.67;100.00;101501.13;10496723;28;20037;-74
2023/11/25 18:14:20;;;;;;;4.90;4.60;;;;;;;6.48;100.00;101499.47;10498101;28;20431;-74
2023/11/25 18:19:21;;;;;;;0.40;0.40;;;;;;;6.34;100.00;101493.78;10495605;28;20032;-74
2023/11/25 18:24:21;;;;;;;0.50;0.50;;;;;;;6.15;100.00;101484.03;10497766;28;20040;-74
2023/11/25 18:29:22;;;;;;;0.40;0.40;;;;;;;6.05;100.00;101489.50;10497394;28;20040;-74
2023/11/25 18:34:22;;;;;;;0.70;0.70;;;;;;;6.11;100.00;101485.34;10496371;28;20037;-74
2023/11/25 18:39:23;;;;;;;0.90;0.90;;;;;;;6.17;100.00;101476.66;10497147;28;20081;-74
2023/11/25 18:44:24;;;;;;;0.30;0.30;;;;;;;6.24;100.00;101480.41;10495657;28;20033;-74
2023/11/25 18:49:24;;;;;;;0.60;0.60;;;;;;;6.33;100.00;101479.50;10496458;28;20037;-74
2023/11/25 18:54:28;;;;;;;0.50;0.50;;;;;;;6.37;100.00;101482.72;10496660;28;20036;-74
2023/11/25 18:59:29;;;;;;;0.47;0.47;;;;;;;6.38;100.00;101485.25;10479078;28;20041;-74
2023/11/25 19:04:29;;;;;;;0.50;0.50;;;;;;;6.34;100.00;101502.69;10497045;28;20036;-74
2023/11/25 19:09:29;;;;;;;0.60;0.60;;;;;;;6.25;100.00;101504.47;10496962;28;20040;-74
2023/11/25 19:14:30;;;;;;;0.50;0.50;;;;;;;6.07;100.00;101509.00;10495998;28;20467;-74
2023/11/25 19:19:30;;;;;;;0.70;0.70;;;;;;;6.19;100.00;101512.28;10493728;28;20048;-74
2023/11/25 19:24:31;;;;;;;0.60;0.60;;;;;;;6.28;100.00;101517.59;10495669;28;20373;-73
2023/11/25 19:29:31;;;;;;;1.35;1.35;;;;;;;6.24;100.00;101524.28;10495643;28;20174;-74
2023/11/25 19:34:31;;;;;;;0.50;0.50;;;;;;;6.09;100.00;101528.50;10495572;28;20037;-73
2023/11/25 19:39:32;;;;;;;1.05;1.05;;;;;;;5.94;100.00;101527.38;10495070;28;20036;-74
2023/11/25 19:44:32;;;;;;;0.60;0.60;;;;;;;5.96;100.00;101538.78;10495238;28;20044;-74
2023/11/25 19:49:33;;;;;;;0.40;0.40;;;;;;;6.09;100.00;101549.19;10494368;28;20078;-74
2023/11/25 19:54:33;;;;;;;0.50;0.50;;;;;;;6.00;100.00;101540.19;10494324;28;20361;-75
2023/11/25 19:59:34;;;;;;;0.50;0.50;;;;;;;5.76;100.00;101535.34;10494557;28;20075;-74
2023/11/25 20:04:37;;;;;;;0.50;0.50;;;;;;;5.60;100.00;101533.31;10494087;28;20094;-74
2023/11/25 20:09:37;;;;;;;0.52;0.52;;;;;;;5.59;100.00;101542.38;10494341;28;20116;-73
2023/11/25 20:14:38;;;;;;;0.60;0.60;;;;;;;5.71;100.00;101546.56;10492553;28;20044;-73
2023/11/25 20:19:38;;;;;;;3.45;3.25;;;;;;;5.70;100.00;101549.38;10491568;28;20053;-73
2023/11/25 20:24:39;;;;;;;0.50;0.50;;;;;;;5.56;100.00;101540.00;10493422;28;20540;-74
2023/11/25 20:29:39;;;;;;;0.50;0.50;;;;;;;5.39;100.00;101535.41;10492406;28;20040;-73
2023/11/25 20:34:40;;;;;;;0.40;0.40;;;;;;;5.40;100.00;101531.72;10491772;28;20047;-74
2023/11/25 20:39:41;;;;;;;0.60;0.60;;;;;;;5.37;100.00;101540.94;10493380;28;20075;-73
2023/11/25 20:44:41;;;;;;;0.50;0.50;;;;;;;5.47;100.00;101539.03;10492712;28;20117;-74
2023/11/25 20:49:42;;;;;;;0.60;0.60;;;;;;;5.69;100.00;101543.19;10490809;28;20064;-73
2023/11/25 20:54:42;;;;;;;0.50;0.50;;;;;;;5.90;100.00;101544.75;10474255;28;20037;-73
2023/11/25 20:59:43;;;;;;;0.60;0.60;;;;;;;6.10;100.00;101550.88;10492450;28;20028;-74
2023/11/25 21:04:43;;;;;;;0.73;0.73;;;;;;;6.01;100.00;101558.00;10492268;28;20064;-74
2023/11/25 21:09:43;;;;;;;0.50;0.50;;;;;;;5.80;100.00;101556.38;10492794;28;20037;-73
2023/11/25 21:14:44;;;;;;;1.25;1.25;;;;;;;5.61;100.00;101553.81;10492024;28;20032;-73
2023/11/25 21:19:44;;;;;;;0.40;0.40;;;;;;;5.55;100.00;101560.66;10491313;28;20059;-74
2023/11/25 21:24:45;;;;;;;0.75;0.75;;;;;;;5.45;100.00;101562.50;10492047;28;20040;-74
2023/11/25 21:29:45;;;;;;;0.50;0.50;;;;;;;5.31;100.00;101561.16;10490232;28;20048;-73
2023/11/25 21:34:45;;;;;;;0.50;0.50;;;;;;;5.18;100.00;101563.31;10473365;28;20036;-73
2023/11/25 21:39:46;;;;;;;0.50;0.50;;;;;;;5.04;100.00;101571.81;10490081;28;20052;-73
2023/11/25 21:44:46;;;;;;;0.50;0.50;;;;;;;4.97;100.00;101559.97;10498284;28;20048;-73
2023/11/25 21:49:47;;;;;;;0.60;0.60;;;;;;;4.85;100.00;101559.28;10481103;28;20479;-73
2023/11/25 21:54:47;;;;;;;0.50;0.50;;;;;;;4.85;100.00;101565.53;10497848;28;20037;-73
2023/11/25 21:59:47;;;;;;;0.60;0.60;;;;;;;5.13;100.00;101589.75;10498929;28;20388;-73
2023/11/25 22:04:48;;;;;;;0.50;0.50;;;;;;;5.44;100.00;101593.06;10498826;28;20042;-73
2023/11/25 22:09:48;;;;;;;0.40;0.40;;;;;;;5.67;100.00;101590.84;10498279;28;20039;-73
2023/11/25 22:14:49;;;;;;;4.22;3.78;;;;;;;5.78;100.00;101590.66;10498223;28;20037;-73
2023/11/25 22:19:49;;;;;;;0.60;0.60;;;;;;;5.97;100.00;101583.53;10497905;28;20488;-74
2023/11/25 22:24:55;;;;;;;0.50;0.50;;;;;;;6.08;100.00;101593.19;10497534;28;20048;-73
2023/11/25 22:29:56;;;;;;;0.60;0.60;;;;;;;6.13;100.00;101599.00;10497551;28;20117;-74
2023/11/25 22:34:56;;;;;;;0.50;0.50;;;;;;;6.12;100.00;101600.81;10496991;28;20036;-74
2023/11/25 22:39:57;;;;;;;0.98;0.98;;;;;;;5.96;100.00;101593.41;10495942;28;20028;-73
2023/11/25 22:44:58;;;;;;;0.50;0.50;;;;;;;5.80;100.00;101585.94;10497106;28;20116;-74
2023/11/25 22:49:58;;;;;;;0.50;0.50;;;;;;;5.55;100.00;101581.25;10495576;28;20490;-75
2023/11/25 22:54:59;;;;;;;0.57;0.57;;;;;;;5.33;100.00;101590.56;10495879;28;20033;-74
2023/11/25 23:00:01;;;;;;;0.88;0.88;;;;;;;5.14;100.00;101580.72;10496197;28;20033;-74